Terminal Aerodrome Forecast
Issued by NWS Billings, MT

Home | Current Version | Previous Version | Text Only | Print | Product List | Glossary On
Versions: 1 2 3 4 5 6 7 8 9 10 11 12 13
000
FTUS45 KBYZ 281132
TAFSHR
TAF
KSHR 281132Z 2812/2912 30010KT P6SM VCFG FEW010 SCT050 SCT120
     FM281500 30010KT P6SM SCT050 SCT150
     FM282000 30010KT P6SM VCSH SCT050 SCT120=

USA.gov is the U.S. government's official web portal to all federal, state and local government web resources and services.